Augusta Township, Michigan
Current Conditions -  °F | °C
As of 4:53 AM on Sunday 23 Nov 2014 (Local Time) from KARB Reporting Station
Light Rain Light Rain  
Wind Chill: 41°   Ceiling: 2800
Heat Index: 45°   Visibility: 8mi
Dew Point: 42°   Wind: 8mph
Humidity: 90%   Direction: 200°SSW
Pressure: 29.94"   Gusts: NA
Location:  42.0828°N, 83.683°W
Report Text: KARB 230953Z AUTO 20007KT 8SM -RA OVC028 07/06 A2994 RMK AO2 SLP141 P0002 T00720056
Loading
Personal Weather Stations






























Interactive Weather Map New forecast layout! Learn more

10-Day Weather Forecast

Advertisements
Track Severe Weather on mobile